sensor_id;sensor_type;location;lat;lon;timestamp;pressure;altitude;pressure_sealevel;temperature;humidity
9257;BME280;4665;51.368;6.782;2023-05-29T00:01:33;101794.81;;;14.56;100.00
9257;BME280;4665;51.368;6.782;2023-05-29T00:04:01;101778.47;;;14.49;100.00
9257;BME280;4665;51.368;6.782;2023-05-29T00:06:26;101780.25;;;14.41;100.00
9257;BME280;4665;51.368;6.782;2023-05-29T00:08:52;101772.84;;;14.35;100.00
9257;BME280;4665;51.368;6.782;2023-05-29T00:11:17;101786.84;;;14.28;100.00
9257;BME280;4665;51.368;6.782;2023-05-29T00:13:43;101780.75;;;14.18;100.00
9257;BME280;4665;51.368;6.782;2023-05-29T00:16:08;101786.94;;;14.19;100.00
9257;BME280;4665;51.368;6.782;2023-05-29T00:18:35;101782.03;;;14.14;100.00
9257;BME280;4665;51.368;6.782;2023-05-29T00:21:00;101799.41;;;14.10;100.00
9257;BME280;4665;51.368;6.782;2023-05-29T00:23:26;101789.28;;;14.04;100.00
9257;BME280;4665;51.368;6.782;2023-05-29T00:25:52;101792.75;;;13.96;100.00
9257;BME280;4665;51.368;6.782;2023-05-29T00:28:17;101800.25;;;13.93;100.00
9257;BME280;4665;51.368;6.782;2023-05-29T00:30:43;101793.84;;;13.85;100.00
9257;BME280;4665;51.368;6.782;2023-05-29T00:33:08;101799.78;;;13.79;100.00
9257;BME280;4665;51.368;6.782;2023-05-29T00:35:34;101799.09;;;13.77;100.00
9257;BME280;4665;51.368;6.782;2023-05-29T00:37:59;101795.19;;;13.72;100.00
9257;BME280;4665;51.368;6.782;2023-05-29T00:40:25;101806.75;;;13.72;100.00
9257;BME280;4665;51.368;6.782;2023-05-29T00:42:50;101806.03;;;13.70;100.00
9257;BME280;4665;51.368;6.782;2023-05-29T00:45:16;101814.22;;;13.68;100.00
9257;BME280;4665;51.368;6.782;2023-05-29T00:47:42;101813.56;;;13.57;100.00
9257;BME280;4665;51.368;6.782;2023-05-29T00:50:11;101815.28;;;13.58;100.00
9257;BME280;4665;51.368;6.782;2023-05-29T00:52:43;101822.88;;;13.53;100.00
9257;BME280;4665;51.368;6.782;2023-05-29T00:55:09;101828.16;;;13.44;100.00
9257;BME280;4665;51.368;6.782;2023-05-29T00:57:35;101830.84;;;13.44;100.00
9257;BME280;4665;51.368;6.782;2023-05-29T01:00:02;101829.44;;;13.40;100.00
9257;BME280;4665;51.368;6.782;2023-05-29T01:02:31;101826.22;;;13.27;100.00
9257;BME280;4665;51.368;6.782;2023-05-29T01:04:57;101829.78;;;13.28;100.00
9257;BME280;4665;51.368;6.782;2023-05-29T01:07:22;101826.38;;;13.25;100.00
9257;BME280;4665;51.368;6.782;2023-05-29T01:09:48;101828.88;;;13.27;100.00
9257;BME280;4665;51.368;6.782;2023-05-29T01:15:01;101823.00;;;13.23;100.00
9257;BME280;4665;51.368;6.782;2023-05-29T01:28:20;101839.72;;;12.88;100.00
9257;BME280;4665;51.368;6.782;2023-05-29T01:30:47;101830.72;;;12.79;100.00
9257;BME280;4665;51.368;6.782;2023-05-29T01:33:14;101838.88;;;12.78;100.00
9257;BME280;4665;51.368;6.782;2023-05-29T01:35:40;101841.56;;;12.78;100.00
9257;BME280;4665;51.368;6.782;2023-05-29T01:38:05;101846.22;;;12.66;100.00
9257;BME280;4665;51.368;6.782;2023-05-29T01:40:30;101845.94;;;12.59;100.00
9257;BME280;4665;51.368;6.782;2023-05-29T01:42:56;101839.19;;;12.55;100.00
9257;BME280;4665;51.368;6.782;2023-05-29T01:45:22;101844.69;;;12.44;100.00
9257;BME280;4665;51.368;6.782;2023-05-29T01:47:48;101847.63;;;12.41;100.00
9257;BME280;4665;51.368;6.782;2023-05-29T01:50:17;101853.81;;;12.32;100.00
9257;BME280;4665;51.368;6.782;2023-05-29T01:52:43;101858.31;;;12.21;100.00
9257;BME280;4665;51.368;6.782;2023-05-29T01:55:09;101861.41;;;12.17;100.00
9257;BME280;4665;51.368;6.782;2023-05-29T01:57:35;101857.31;;;12.13;100.00
9257;BME280;4665;51.368;6.782;2023-05-29T02:00:03;101866.75;;;12.07;100.00
9257;BME280;4665;51.368;6.782;2023-05-29T02:02:38;101861.09;;;12.00;100.00
9257;BME280;4665;51.368;6.782;2023-05-29T02:05:06;101862.22;;;11.98;100.00
9257;BME280;4665;51.368;6.782;2023-05-29T02:07:33;101858.03;;;12.05;100.00
9257;BME280;4665;51.368;6.782;2023-05-29T02:09:59;101870.94;;;12.00;100.00
9257;BME280;4665;51.368;6.782;2023-05-29T02:12:24;101865.56;;;11.90;100.00
9257;BME280;4665;51.368;6.782;2023-05-29T02:14:49;101862.22;;;11.88;100.00
9257;BME280;4665;51.368;6.782;2023-05-29T02:17:15;101872.03;;;11.88;100.00
9257;BME280;4665;51.368;6.782;2023-05-29T02:19:40;101875.47;;;11.78;100.00
9257;BME280;4665;51.368;6.782;2023-05-29T02:22:07;101874.91;;;11.75;100.00
9257;BME280;4665;51.368;6.782;2023-05-29T02:24:32;101873.63;;;11.69;100.00
9257;BME280;4665;51.368;6.782;2023-05-29T02:26:58;101871.66;;;11.71;100.00
9257;BME280;4665;51.368;6.782;2023-05-29T02:29:23;101877.72;;;11.73;100.00
9257;BME280;4665;51.368;6.782;2023-05-29T02:31:49;101878.72;;;11.72;100.00
9257;BME280;4665;51.368;6.782;2023-05-29T02:34:14;101856.63;;;11.70;100.00
9257;BME280;4665;51.368;6.782;2023-05-29T02:36:39;101873.91;;;11.66;100.00
9257;BME280;4665;51.368;6.782;2023-05-29T02:39:05;101877.69;;;11.64;100.00
9257;BME280;4665;51.368;6.782;2023-05-29T02:41:31;101884.53;;;11.56;100.00
9257;BME280;4665;51.368;6.782;2023-05-29T02:43:57;101879.47;;;11.53;100.00
9257;BME280;4665;51.368;6.782;2023-05-29T02:46:22;101873.88;;;11.56;100.00
9257;BME280;4665;51.368;6.782;2023-05-29T02:48:47;101892.59;;;11.66;100.00
9257;BME280;4665;51.368;6.782;2023-05-29T02:51:13;101890.44;;;11.60;100.00
9257;BME280;4665;51.368;6.782;2023-05-29T02:53:39;101895.75;;;11.50;100.00
9257;BME280;4665;51.368;6.782;2023-05-29T02:56:06;101898.28;;;11.52;100.00
9257;BME280;4665;51.368;6.782;2023-05-29T02:58:33;101888.84;;;11.48;100.00
9257;BME280;4665;51.368;6.782;2023-05-29T03:01:00;101890.69;;;11.47;100.00
9257;BME280;4665;51.368;6.782;2023-05-29T03:03:27;101896.84;;;11.48;100.00
9257;BME280;4665;51.368;6.782;2023-05-29T03:05:53;101905.56;;;11.50;100.00
9257;BME280;4665;51.368;6.782;2023-05-29T03:08:18;101903.75;;;11.50;100.00
9257;BME280;4665;51.368;6.782;2023-05-29T03:10:44;101894.47;;;11.45;100.00
9257;BME280;4665;51.368;6.782;2023-05-29T03:13:10;101897.38;;;11.42;100.00
9257;BME280;4665;51.368;6.782;2023-05-29T03:15:35;101892.19;;;11.40;100.00
9257;BME280;4665;51.368;6.782;2023-05-29T03:18:01;101903.25;;;11.35;100.00
9257;BME280;4665;51.368;6.782;2023-05-29T03:20:27;101899.88;;;11.33;100.00
9257;BME280;4665;51.368;6.782;2023-05-29T03:22:53;101901.84;;;11.31;100.00
9257;BME280;4665;51.368;6.782;2023-05-29T03:25:20;101893.78;;;11.22;100.00
9257;BME280;4665;51.368;6.782;2023-05-29T03:27:45;101898.00;;;11.24;100.00
9257;BME280;4665;51.368;6.782;2023-05-29T03:30:11;101904.84;;;11.17;100.00
9257;BME280;4665;51.368;6.782;2023-05-29T03:32:37;101900.19;;;11.09;100.00
9257;BME280;4665;51.368;6.782;2023-05-29T03:35:02;101911.53;;;11.11;100.00
9257;BME280;4665;51.368;6.782;2023-05-29T03:37:29;101903.69;;;11.10;100.00
9257;BME280;4665;51.368;6.782;2023-05-29T03:39:54;101903.34;;;11.03;100.00
9257;BME280;4665;51.368;6.782;2023-05-29T03:42:20;101894.19;;;10.96;100.00
9257;BME280;4665;51.368;6.782;2023-05-29T03:44:45;101902.31;;;10.94;100.00
9257;BME280;4665;51.368;6.782;2023-05-29T03:47:11;101900.88;;;10.90;100.00
9257;BME280;4665;51.368;6.782;2023-05-29T03:49:36;101908.28;;;10.87;100.00
9257;BME280;4665;51.368;6.782;2023-05-29T03:52:02;101896.47;;;10.80;100.00
9257;BME280;4665;51.368;6.782;2023-05-29T03:54:27;101910.28;;;10.73;100.00
9257;BME280;4665;51.368;6.782;2023-05-29T03:56:53;101902.56;;;10.70;100.00
9257;BME280;4665;51.368;6.782;2023-05-29T03:59:18;101912.59;;;10.67;100.00
9257;BME280;4665;51.368;6.782;2023-05-29T04:01:44;101930.53;;;10.65;100.00
9257;BME280;4665;51.368;6.782;2023-05-29T04:04:09;101923.81;;;10.61;100.00
9257;BME280;4665;51.368;6.782;2023-05-29T04:06:35;101934.56;;;10.59;100.00
9257;BME280;4665;51.368;6.782;2023-05-29T04:09:04;101931.06;;;10.59;100.00
9257;BME280;4665;51.368;6.782;2023-05-29T04:11:34;101938.03;;;10.71;100.00
9257;BME280;4665;51.368;6.782;2023-05-29T04:14:00;101927.50;;;10.69;100.00
9257;BME280;4665;51.368;6.782;2023-05-29T04:16:27;101934.00;;;10.77;100.00
9257;BME280;4665;51.368;6.782;2023-05-29T04:18:53;101944.28;;;10.81;100.00
9257;BME280;4665;51.368;6.782;2023-05-29T04:21:18;101936.81;;;10.75;100.00
9257;BME280;4665;51.368;6.782;2023-05-29T04:23:44;101939.03;;;10.70;100.00
9257;BME280;4665;51.368;6.782;2023-05-29T04:26:09;101940.44;;;10.74;100.00
9257;BME280;4665;51.368;6.782;2023-05-29T04:28:35;101945.06;;;10.72;100.00
9257;BME280;4665;51.368;6.782;2023-05-29T04:31:02;101944.81;;;10.75;100.00
9257;BME280;4665;51.368;6.782;2023-05-29T04:33:28;101934.28;;;10.73;100.00
9257;BME280;4665;51.368;6.782;2023-05-29T04:35:55;101932.34;;;10.76;100.00
9257;BME280;4665;51.368;6.782;2023-05-29T04:38:20;101931.22;;;10.78;100.00
9257;BME280;4665;51.368;6.782;2023-05-29T04:40:51;101937.28;;;10.80;100.00
9257;BME280;4665;51.368;6.782;2023-05-29T04:43:16;101930.38;;;10.78;100.00
9257;BME280;4665;51.368;6.782;2023-05-29T04:45:41;101938.00;;;10.82;100.00
9257;BME280;4665;51.368;6.782;2023-05-29T04:48:07;101936.56;;;10.78;100.00
9257;BME280;4665;51.368;6.782;2023-05-29T04:50:34;101954.09;;;10.81;100.00
9257;BME280;4665;51.368;6.782;2023-05-29T04:53:00;101959.44;;;10.81;100.00
9257;BME280;4665;51.368;6.782;2023-05-29T04:55:26;101954.50;;;10.76;100.00
9257;BME280;4665;51.368;6.782;2023-05-29T04:57:52;101973.88;;;10.78;100.00
9257;BME280;4665;51.368;6.782;2023-05-29T05:00:18;101965.16;;;10.76;100.00
9257;BME280;4665;51.368;6.782;2023-05-29T05:02:44;101971.47;;;10.75;100.00
9257;BME280;4665;51.368;6.782;2023-05-29T05:05:11;101976.91;;;10.73;100.00
9257;BME280;4665;51.368;6.782;2023-05-29T05:07:37;101978.25;;;10.79;100.00
9257;BME280;4665;51.368;6.782;2023-05-29T05:10:03;101983.91;;;10.86;100.00
9257;BME280;4665;51.368;6.782;2023-05-29T05:12:29;101981.00;;;10.89;100.00
9257;BME280;4665;51.368;6.782;2023-05-29T05:14:55;101977.94;;;10.93;100.00
9257;BME280;4665;51.368;6.782;2023-05-29T05:17:21;101974.56;;;10.91;100.00
9257;BME280;4665;51.368;6.782;2023-05-29T05:19:47;101980.56;;;11.05;100.00
9257;BME280;4665;51.368;6.782;2023-05-29T05:22:14;101978.75;;;11.05;100.00
9257;BME280;4665;51.368;6.782;2023-05-29T05:24:40;101976.06;;;11.05;100.00
9257;BME280;4665;51.368;6.782;2023-05-29T05:27:05;101979.47;;;11.07;100.00
9257;BME280;4665;51.368;6.782;2023-05-29T05:29:31;101973.91;;;10.99;100.00
9257;BME280;4665;51.368;6.782;2023-05-29T05:31:57;101975.22;;;11.05;100.00
9257;BME280;4665;51.368;6.782;2023-05-29T05:34:22;101971.84;;;11.03;100.00
9257;BME280;4665;51.368;6.782;2023-05-29T05:36:48;101963.19;;;11.10;100.00
9257;BME280;4665;51.368;6.782;2023-05-29T05:39:14;101969.03;;;11.25;100.00
9257;BME280;4665;51.368;6.782;2023-05-29T05:41:40;101973.69;;;11.23;100.00
9257;BME280;4665;51.368;6.782;2023-05-29T05:44:05;101975.25;;;11.26;100.00
9257;BME280;4665;51.368;6.782;2023-05-29T05:46:31;101977.97;;;11.35;100.00
9257;BME280;4665;51.368;6.782;2023-05-29T05:48:56;101973.59;;;11.34;100.00
9257;BME280;4665;51.368;6.782;2023-05-29T05:51:23;101985.59;;;11.40;100.00
9257;BME280;4665;51.368;6.782;2023-05-29T05:53:48;101980.56;;;11.47;100.00
9257;BME280;4665;51.368;6.782;2023-05-29T05:56:14;101980.03;;;11.53;100.00
9257;BME280;4665;51.368;6.782;2023-05-29T05:58:39;101977.25;;;11.54;100.00
9257;BME280;4665;51.368;6.782;2023-05-29T06:01:05;101965.88;;;11.62;100.00
9257;BME280;4665;51.368;6.782;2023-05-29T06:03:32;101958.59;;;11.64;100.00
9257;BME280;4665;51.368;6.782;2023-05-29T06:05:58;101962.19;;;11.74;100.00
9257;BME280;4665;51.368;6.782;2023-05-29T06:08:23;101964.44;;;11.79;100.00
9257;BME280;4665;51.368;6.782;2023-05-29T06:10:49;101969.09;;;11.87;100.00
9257;BME280;4665;51.368;6.782;2023-05-29T06:13:15;101976.47;;;11.94;100.00
9257;BME280;4665;51.368;6.782;2023-05-29T06:15:42;101983.25;;;11.98;100.00
9257;BME280;4665;51.368;6.782;2023-05-29T06:18:07;101984.50;;;12.04;100.00
9257;BME280;4665;51.368;6.782;2023-05-29T06:20:33;101985.41;;;12.14;100.00
9257;BME280;4665;51.368;6.782;2023-05-29T06:22:58;101993.84;;;12.19;100.00
9257;BME280;4665;51.368;6.782;2023-05-29T06:25:24;101993.56;;;12.23;100.00
9257;BME280;4665;51.368;6.782;2023-05-29T06:27:59;102003.16;;;12.25;100.00
9257;BME280;4665;51.368;6.782;2023-05-29T06:30:24;102005.38;;;12.20;100.00
9257;BME280;4665;51.368;6.782;2023-05-29T06:32:50;102004.53;;;12.19;100.00
9257;BME280;4665;51.368;6.782;2023-05-29T06:35:16;101998.91;;;12.23;100.00
9257;BME280;4665;51.368;6.782;2023-05-29T06:37:41;102002.47;;;12.33;100.00
9257;BME280;4665;51.368;6.782;2023-05-29T06:40:07;101998.69;;;12.35;100.00
9257;BME280;4665;51.368;6.782;2023-05-29T06:42:33;102001.56;;;12.53;100.00
9257;BME280;4665;51.368;6.782;2023-05-29T06:44:58;101994.09;;;12.67;100.00
9257;BME280;4665;51.368;6.782;2023-05-29T06:47:24;101996.53;;;12.79;100.00
9257;BME280;4665;51.368;6.782;2023-05-29T06:49:49;101989.34;;;12.90;100.00
9257;BME280;4665;51.368;6.782;2023-05-29T06:52:14;101994.00;;;13.07;100.00
9257;BME280;4665;51.368;6.782;2023-05-29T06:54:40;101982.97;;;13.20;100.00
9257;BME280;4665;51.368;6.782;2023-05-29T06:57:06;101983.41;;;13.25;100.00
9257;BME280;4665;51.368;6.782;2023-05-29T06:59:32;101982.00;;;13.21;100.00
9257;BME280;4665;51.368;6.782;2023-05-29T07:01:58;101981.00;;;13.22;100.00
9257;BME280;4665;51.368;6.782;2023-05-29T07:04:23;101985.84;;;13.28;100.00
9257;BME280;4665;51.368;6.782;2023-05-29T07:06:49;101976.09;;;13.17;100.00
9257;BME280;4665;51.368;6.782;2023-05-29T07:09:14;101989.47;;;13.17;100.00
9257;BME280;4665;51.368;6.782;2023-05-29T07:11:40;101992.84;;;13.19;100.00
9257;BME280;4665;51.368;6.782;2023-05-29T07:14:05;101996.38;;;13.30;100.00
9257;BME280;4665;51.368;6.782;2023-05-29T07:16:30;101988.34;;;13.39;100.00
9257;BME280;4665;51.368;6.782;2023-05-29T07:18:56;101996.06;;;13.52;100.00
9257;BME280;4665;51.368;6.782;2023-05-29T07:21:21;102003.22;;;13.61;100.00
9257;BME280;4665;51.368;6.782;2023-05-29T07:23:47;101998.97;;;13.68;100.00
9257;BME280;4665;51.368;6.782;2023-05-29T07:26:12;101997.31;;;13.67;100.00
9257;BME280;4665;51.368;6.782;2023-05-29T07:28:38;102001.63;;;13.78;100.00
9257;BME280;4665;51.368;6.782;2023-05-29T07:31:03;102011.94;;;13.73;100.00
9257;BME280;4665;51.368;6.782;2023-05-29T07:33:28;102002.06;;;13.74;100.00
9257;BME280;4665;51.368;6.782;2023-05-29T07:35:54;102007.41;;;13.83;100.00
9257;BME280;4665;51.368;6.782;2023-05-29T07:38:20;102007.09;;;13.86;100.00
9257;BME280;4665;51.368;6.782;2023-05-29T07:40:46;102013.44;;;13.95;100.00
9257;BME280;4665;51.368;6.782;2023-05-29T07:43:11;102007.50;;;13.92;100.00
9257;BME280;4665;51.368;6.782;2023-05-29T07:45:37;102019.75;;;13.94;100.00
9257;BME280;4665;51.368;6.782;2023-05-29T07:48:02;102023.31;;;13.85;100.00
9257;BME280;4665;51.368;6.782;2023-05-29T07:50:28;102026.88;;;13.85;100.00
9257;BME280;4665;51.368;6.782;2023-05-29T07:52:53;102014.25;;;13.96;100.00
9257;BME280;4665;51.368;6.782;2023-05-29T07:55:38;102024.50;;;14.10;100.00
9257;BME280;4665;51.368;6.782;2023-05-29T07:58:03;102025.59;;;14.17;100.00
9257;BME280;4665;51.368;6.782;2023-05-29T08:00:29;102020.75;;;14.30;100.00
9257;BME280;4665;51.368;6.782;2023-05-29T08:02:54;102031.25;;;14.42;100.00
9257;BME280;4665;51.368;6.782;2023-05-29T08:05:20;102032.94;;;14.43;100.00
9257;BME280;4665;51.368;6.782;2023-05-29T08:07:46;102036.31;;;14.45;100.00
9257;BME280;4665;51.368;6.782;2023-05-29T08:10:13;102027.69;;;14.51;100.00
9257;BME280;4665;51.368;6.782;2023-05-29T08:12:38;102028.66;;;14.50;100.00
9257;BME280;4665;51.368;6.782;2023-05-29T08:15:04;102034.03;;;14.50;100.00
9257;BME280;4665;51.368;6.782;2023-05-29T08:17:30;102032.47;;;14.57;100.00
9257;BME280;4665;51.368;6.782;2023-05-29T08:19:55;102042.25;;;14.76;100.00
9257;BME280;4665;51.368;6.782;2023-05-29T08:22:27;102049.53;;;14.84;100.00
9257;BME280;4665;51.368;6.782;2023-05-29T08:24:53;102039.72;;;14.92;100.00
9257;BME280;4665;51.368;6.782;2023-05-29T08:27:18;102036.03;;;15.11;100.00
9257;BME280;4665;51.368;6.782;2023-05-29T08:29:45;102034.56;;;15.17;100.00
9257;BME280;4665;51.368;6.782;2023-05-29T08:32:10;102030.13;;;15.08;100.00
9257;BME280;4665;51.368;6.782;2023-05-29T08:34:36;102033.34;;;14.93;100.00
9257;BME280;4665;51.368;6.782;2023-05-29T08:37:02;102035.25;;;15.01;100.00
9257;BME280;4665;51.368;6.782;2023-05-29T08:39:28;102034.66;;;15.07;100.00
9257;BME280;4665;51.368;6.782;2023-05-29T08:42:04;102034.47;;;15.27;100.00
9257;BME280;4665;51.368;6.782;2023-05-29T08:44:32;102037.84;;;15.29;100.00
9257;BME280;4665;51.368;6.782;2023-05-29T08:47:01;102039.19;;;15.07;100.00
9257;BME280;4665;51.368;6.782;2023-05-29T08:49:29;102037.72;;;15.12;100.00
9257;BME280;4665;51.368;6.782;2023-05-29T08:52:15;102042.84;;;15.06;100.00
9257;BME280;4665;51.368;6.782;2023-05-29T08:54:42;102039.25;;;15.15;100.00
9257;BME280;4665;51.368;6.782;2023-05-29T08:57:08;102035.63;;;15.24;100.00
9257;BME280;4665;51.368;6.782;2023-05-29T08:59:34;102049.16;;;15.32;100.00
9257;BME280;4665;51.368;6.782;2023-05-29T09:02:02;102052.44;;;15.44;100.00
9257;BME280;4665;51.368;6.782;2023-05-29T09:04:28;102048.19;;;15.60;100.00
9257;BME280;4665;51.368;6.782;2023-05-29T09:07:01;102041.19;;;15.67;100.00
9257;BME280;4665;51.368;6.782;2023-05-29T09:09:29;102031.75;;;15.63;100.00
9257;BME280;4665;51.368;6.782;2023-05-29T09:11:57;102051.28;;;15.47;100.00
9257;BME280;4665;51.368;6.782;2023-05-29T09:14:40;102057.69;;;15.54;100.00
9257;BME280;4665;51.368;6.782;2023-05-29T09:17:06;102057.38;;;15.57;100.00
9257;BME280;4665;51.368;6.782;2023-05-29T09:19:34;102055.56;;;15.57;100.00
9257;BME280;4665;51.368;6.782;2023-05-29T09:22:01;102055.78;;;15.64;100.00
9257;BME280;4665;51.368;6.782;2023-05-29T09:24:28;102054.06;;;15.63;100.00
9257;BME280;4665;51.368;6.782;2023-05-29T09:26:53;102051.72;;;15.60;100.00
9257;BME280;4665;51.368;6.782;2023-05-29T09:29:21;102048.56;;;15.65;100.00
9257;BME280;4665;51.368;6.782;2023-05-29T09:31:47;102050.78;;;15.69;100.00
9257;BME280;4665;51.368;6.782;2023-05-29T09:34:12;102059.44;;;15.81;100.00
9257;BME280;4665;51.368;6.782;2023-05-29T09:36:38;102054.75;;;15.83;100.00
9257;BME280;4665;51.368;6.782;2023-05-29T09:39:03;102059.94;;;15.85;100.00
9257;BME280;4665;51.368;6.782;2023-05-29T09:41:47;102060.38;;;15.98;100.00
9257;BME280;4665;51.368;6.782;2023-05-29T09:44:14;102065.13;;;16.04;100.00
9257;BME280;4665;51.368;6.782;2023-05-29T09:46:40;102067.00;;;16.12;100.00
9257;BME280;4665;51.368;6.782;2023-05-29T09:49:23;102061.97;;;16.09;100.00
9257;BME280;4665;51.368;6.782;2023-05-29T09:51:48;102059.97;;;16.11;100.00
9257;BME280;4665;51.368;6.782;2023-05-29T09:54:15;102067.00;;;16.12;100.00
9257;BME280;4665;51.368;6.782;2023-05-29T09:56:42;102067.38;;;16.17;100.00
9257;BME280;4665;51.368;6.782;2023-05-29T09:59:12;102068.38;;;16.16;100.00
9257;BME280;4665;51.368;6.782;2023-05-29T10:01:42;102063.91;;;15.98;100.00
9257;BME280;4665;51.368;6.782;2023-05-29T10:04:10;102067.16;;;16.10;100.00
9257;BME280;4665;51.368;6.782;2023-05-29T10:06:36;102068.69;;;16.13;100.00
9257;BME280;4665;51.368;6.782;2023-05-29T10:09:03;102066.53;;;16.16;100.00
9257;BME280;4665;51.368;6.782;2023-05-29T10:11:32;102059.16;;;16.27;100.00
9257;BME280;4665;51.368;6.782;2023-05-29T10:14:00;102055.91;;;16.41;100.00
9257;BME280;4665;51.368;6.782;2023-05-29T10:16:25;102048.84;;;16.48;100.00
9257;BME280;4665;51.368;6.782;2023-05-29T10:18:56;102061.53;;;16.64;100.00
9257;BME280;4665;51.368;6.782;2023-05-29T10:21:25;102056.50;;;16.69;100.00
9257;BME280;4665;51.368;6.782;2023-05-29T10:23:51;102052.66;;;16.80;100.00
9257;BME280;4665;51.368;6.782;2023-05-29T10:26:21;102059.94;;;16.88;100.00
9257;BME280;4665;51.368;6.782;2023-05-29T10:29:01;102057.41;;;16.86;100.00
9257;BME280;4665;51.368;6.782;2023-05-29T10:31:33;102063.94;;;16.83;100.00
9257;BME280;4665;51.368;6.782;2023-05-29T10:37:18;102048.13;;;16.89;100.00
9257;BME280;4665;51.368;6.782;2023-05-29T10:39:45;102041.44;;;16.93;100.00
9257;BME280;4665;51.368;6.782;2023-05-29T10:42:46;102045.63;;;16.95;100.00
9257;BME280;4665;51.368;6.782;2023-05-29T10:50:45;102041.94;;;17.04;100.00
9257;BME280;4665;51.368;6.782;2023-05-29T10:53:15;102043.78;;;17.12;100.00
9257;BME280;4665;51.368;6.782;2023-05-29T10:55:42;102039.94;;;17.23;100.00
9257;BME280;4665;51.368;6.782;2023-05-29T10:58:09;102038.91;;;17.40;100.00
9257;BME280;4665;51.368;6.782;2023-05-29T11:00:46;102039.44;;;17.52;100.00
9257;BME280;4665;51.368;6.782;2023-05-29T11:03:17;102036.03;;;17.66;100.00
9257;BME280;4665;51.368;6.782;2023-05-29T11:06:00;102027.75;;;17.68;100.00
9257;BME280;4665;51.368;6.782;2023-05-29T11:08:45;102022.91;;;17.72;100.00
9257;BME280;4665;51.368;6.782;2023-05-29T11:11:13;102032.31;;;17.76;100.00
9257;BME280;4665;51.368;6.782;2023-05-29T11:13:39;102018.84;;;17.76;100.00
9257;BME280;4665;51.368;6.782;2023-05-29T11:18:44;102016.97;;;17.84;100.00
9257;BME280;4665;51.368;6.782;2023-05-29T11:21:30;102015.13;;;17.93;100.00
9257;BME280;4665;51.368;6.782;2023-05-29T11:23:58;102025.88;;;18.01;100.00
9257;BME280;4665;51.368;6.782;2023-05-29T11:26:27;102012.72;;;17.98;100.00
9257;BME280;4665;51.368;6.782;2023-05-29T11:28:53;102022.16;;;18.02;100.00
9257;BME280;4665;51.368;6.782;2023-05-29T11:31:20;102024.53;;;17.97;100.00
9257;BME280;4665;51.368;6.782;2023-05-29T11:33:50;102018.78;;;18.00;100.00
9257;BME280;4665;51.368;6.782;2023-05-29T11:36:21;102019.25;;;18.12;100.00
9257;BME280;4665;51.368;6.782;2023-05-29T11:38:47;102012.66;;;18.15;100.00
9257;BME280;4665;51.368;6.782;2023-05-29T11:41:16;102015.84;;;18.26;100.00
9257;BME280;4665;51.368;6.782;2023-05-29T11:43:42;102011.31;;;18.19;100.00
9257;BME280;4665;51.368;6.782;2023-05-29T11:46:34;102013.47;;;18.32;100.00
9257;BME280;4665;51.368;6.782;2023-05-29T11:49:00;102003.44;;;18.40;100.00
9257;BME280;4665;51.368;6.782;2023-05-29T11:51:26;102010.19;;;18.44;100.00
9257;BME280;4665;51.368;6.782;2023-05-29T11:53:52;102004.59;;;18.46;100.00
9257;BME280;4665;51.368;6.782;2023-05-29T11:56:26;101995.34;;;18.40;100.00
9257;BME280;4665;51.368;6.782;2023-05-29T11:58:52;101993.66;;;18.47;100.00
9257;BME280;4665;51.368;6.782;2023-05-29T12:01:26;101999.03;;;18.47;100.00
9257;BME280;4665;51.368;6.782;2023-05-29T12:03:52;101997.50;;;18.45;100.00
9257;BME280;4665;51.368;6.782;2023-05-29T12:06:34;102007.47;;;18.44;100.00
9257;BME280;4665;51.368;6.782;2023-05-29T12:09:02;102013.00;;;18.51;100.00
9257;BME280;4665;51.368;6.782;2023-05-29T12:11:28;101996.81;;;18.51;100.00
9257;BME280;4665;51.368;6.782;2023-05-29T12:13:59;102011.13;;;18.60;100.00
9257;BME280;4665;51.368;6.782;2023-05-29T12:16:30;101999.25;;;18.69;100.00
9257;BME280;4665;51.368;6.782;2023-05-29T12:18:58;102011.41;;;18.65;90.56
9257;BME280;4665;51.368;6.782;2023-05-29T12:21:23;102005.09;;;18.49;99.33
9257;BME280;4665;51.368;6.782;2023-05-29T12:23:53;102010.63;;;18.56;100.00
9257;BME280;4665;51.368;6.782;2023-05-29T12:26:23;102007.03;;;18.64;94.15
9257;BME280;4665;51.368;6.782;2023-05-29T12:28:51;102009.00;;;18.70;97.78
9257;BME280;4665;51.368;6.782;2023-05-29T12:31:27;102010.50;;;18.72;100.00
9257;BME280;4665;51.368;6.782;2023-05-29T12:33:53;102010.66;;;18.79;96.97
9257;BME280;4665;51.368;6.782;2023-05-29T12:36:19;101997.47;;;18.84;96.68
9257;BME280;4665;51.368;6.782;2023-05-29T12:38:49;102003.00;;;18.91;91.53
9257;BME280;4665;51.368;6.782;2023-05-29T12:41:42;102002.88;;;18.84;90.33
9257;BME280;4665;51.368;6.782;2023-05-29T12:44:07;102011.75;;;18.93;94.56
9257;BME280;4665;51.368;6.782;2023-05-29T12:46:42;102007.97;;;19.02;92.63
9257;BME280;4665;51.368;6.782;2023-05-29T12:49:17;102006.03;;;18.96;92.02
9257;BME280;4665;51.368;6.782;2023-05-29T12:51:46;102003.47;;;18.95;100.00
9257;BME280;4665;51.368;6.782;2023-05-29T12:54:16;102013.66;;;18.84;90.36
9257;BME280;4665;51.368;6.782;2023-05-29T12:56:42;102004.19;;;18.88;100.00
9257;BME280;4665;51.368;6.782;2023-05-29T12:59:08;102010.25;;;18.90;96.82
9257;BME280;4665;51.368;6.782;2023-05-29T13:01:35;102016.31;;;18.92;98.61
9257;BME280;4665;51.368;6.782;2023-05-29T13:04:02;102012.97;;;18.90;100.00
9257;BME280;4665;51.368;6.782;2023-05-29T13:06:28;102005.16;;;18.96;97.71
9257;BME280;4665;51.368;6.782;2023-05-29T13:08:54;102025.31;;;18.85;90.49
9257;BME280;4665;51.368;6.782;2023-05-29T13:11:19;102010.66;;;18.79;90.57
9257;BME280;4665;51.368;6.782;2023-05-29T13:13:45;102012.00;;;18.83;100.00
9257;BME280;4665;51.368;6.782;2023-05-29T13:16:11;102022.22;;;18.96;93.29
9257;BME280;4665;51.368;6.782;2023-05-29T13:18:37;102019.56;;;18.88;89.09
9257;BME280;4665;51.368;6.782;2023-05-29T13:21:02;102016.78;;;18.73;90.34
9257;BME280;4665;51.368;6.782;2023-05-29T13:23:28;102006.50;;;18.68;91.59
9257;BME280;4665;51.368;6.782;2023-05-29T13:25:53;102007.34;;;18.69;98.12